sensor_id;sensor_type;location;lat;lon;timestamp;P1;durP1;ratioP1;P2;durP2;ratioP2
54705;SDS011;40603;48.774;8.916;2023-07-29T00:01:40;3.80;;;1.40;;
54705;SDS011;40603;48.774;8.916;2023-07-29T00:04:06;4.00;;;1.58;;
54705;SDS011;40603;48.774;8.916;2023-07-29T00:06:31;1.73;;;1.40;;
54705;SDS011;40603;48.774;8.916;2023-07-29T00:08:56;5.13;;;1.58;;
54705;SDS011;40603;48.774;8.916;2023-07-29T00:11:22;2.92;;;1.40;;
54705;SDS011;40603;48.774;8.916;2023-07-29T00:13:47;6.93;;;1.50;;
54705;SDS011;40603;48.774;8.916;2023-07-29T00:16:14;8.18;;;1.75;;
54705;SDS011;40603;48.774;8.916;2023-07-29T00:18:42;3.53;;;1.50;;
54705;SDS011;40603;48.774;8.916;2023-07-29T00:21:07;3.45;;;1.50;;
54705;SDS011;40603;48.774;8.916;2023-07-29T00:23:32;3.42;;;1.90;;
54705;SDS011;40603;48.774;8.916;2023-07-29T00:25:58;1.92;;;1.55;;
54705;SDS011;40603;48.774;8.916;2023-07-29T00:28:23;6.00;;;1.75;;
54705;SDS011;40603;48.774;8.916;2023-07-29T00:30:48;3.20;;;1.50;;
54705;SDS011;40603;48.774;8.916;2023-07-29T00:33:13;5.82;;;1.40;;
54705;SDS011;40603;48.774;8.916;2023-07-29T00:35:39;4.85;;;1.58;;
54705;SDS011;40603;48.774;8.916;2023-07-29T00:38:04;5.18;;;1.77;;
54705;SDS011;40603;48.774;8.916;2023-07-29T00:40:29;3.88;;;1.90;;
54705;SDS011;40603;48.774;8.916;2023-07-29T00:42:55;2.45;;;1.55;;
54705;SDS011;40603;48.774;8.916;2023-07-29T00:45:21;4.30;;;1.65;;
54705;SDS011;40603;48.774;8.916;2023-07-29T00:47:46;3.40;;;1.63;;
54705;SDS011;40603;48.774;8.916;2023-07-29T00:50:13;5.75;;;1.95;;
54705;SDS011;40603;48.774;8.916;2023-07-29T00:52:39;5.68;;;1.60;;
54705;SDS011;40603;48.774;8.916;2023-07-29T00:55:05;7.18;;;1.77;;
54705;SDS011;40603;48.774;8.916;2023-07-29T00:57:31;5.30;;;1.90;;
54705;SDS011;40603;48.774;8.916;2023-07-29T00:59:58;6.28;;;1.90;;
54705;SDS011;40603;48.774;8.916;2023-07-29T01:02:24;3.92;;;1.65;;
54705;SDS011;40603;48.774;8.916;2023-07-29T01:04:53;5.20;;;2.03;;
54705;SDS011;40603;48.774;8.916;2023-07-29T01:07:21;3.75;;;1.80;;
54705;SDS011;40603;48.774;8.916;2023-07-29T01:10:02;10.02;;;1.70;;
54705;SDS011;40603;48.774;8.916;2023-07-29T01:12:39;3.83;;;2.33;;
54705;SDS011;40603;48.774;8.916;2023-07-29T01:15:12;8.32;;;1.50;;
54705;SDS011;40603;48.774;8.916;2023-07-29T01:17:46;3.80;;;2.00;;
54705;SDS011;40603;48.774;8.916;2023-07-29T01:20:14;5.75;;;1.65;;
54705;SDS011;40603;48.774;8.916;2023-07-29T01:22:40;1.75;;;1.30;;
54705;SDS011;40603;48.774;8.916;2023-07-29T01:25:06;2.88;;;1.77;;
54705;SDS011;40603;48.774;8.916;2023-07-29T01:27:31;3.78;;;1.50;;
54705;SDS011;40603;48.774;8.916;2023-07-29T01:29:57;4.85;;;1.45;;
54705;SDS011;40603;48.774;8.916;2023-07-29T01:35:03;2.90;;;1.50;;
54705;SDS011;40603;48.774;8.916;2023-07-29T01:37:35;5.07;;;1.95;;
54705;SDS011;40603;48.774;8.916;2023-07-29T01:40:02;5.78;;;1.55;;
54705;SDS011;40603;48.774;8.916;2023-07-29T01:42:29;2.38;;;1.77;;
54705;SDS011;40603;48.774;8.916;2023-07-29T01:44:54;4.70;;;1.58;;
54705;SDS011;40603;48.774;8.916;2023-07-29T01:47:20;5.78;;;1.60;;
54705;SDS011;40603;48.774;8.916;2023-07-29T01:49:47;5.47;;;1.90;;
54705;SDS011;40603;48.774;8.916;2023-07-29T01:52:12;3.45;;;1.60;;
54705;SDS011;40603;48.774;8.916;2023-07-29T01:54:37;5.90;;;1.60;;
54705;SDS011;40603;48.774;8.916;2023-07-29T01:57:03;3.25;;;1.50;;
54705;SDS011;40603;48.774;8.916;2023-07-29T01:59:28;2.45;;;1.88;;
54705;SDS011;40603;48.774;8.916;2023-07-29T02:01:53;4.60;;;1.67;;
54705;SDS011;40603;48.774;8.916;2023-07-29T02:04:19;2.92;;;1.83;;
54705;SDS011;40603;48.774;8.916;2023-07-29T02:06:44;3.50;;;1.70;;
54705;SDS011;40603;48.774;8.916;2023-07-29T02:09:09;9.85;;;2.20;;
54705;SDS011;40603;48.774;8.916;2023-07-29T02:11:35;3.72;;;1.83;;
54705;SDS011;40603;48.774;8.916;2023-07-29T02:14:00;3.15;;;1.80;;
54705;SDS011;40603;48.774;8.916;2023-07-29T02:16:25;5.50;;;2.08;;
54705;SDS011;40603;48.774;8.916;2023-07-29T02:18:51;5.03;;;2.00;;
54705;SDS011;40603;48.774;8.916;2023-07-29T02:21:16;7.18;;;2.40;;
54705;SDS011;40603;48.774;8.916;2023-07-29T02:23:41;3.55;;;1.45;;
54705;SDS011;40603;48.774;8.916;2023-07-29T02:26:07;4.93;;;2.05;;
54705;SDS011;40603;48.774;8.916;2023-07-29T02:28:33;7.10;;;2.00;;
54705;SDS011;40603;48.774;8.916;2023-07-29T02:33:38;3.45;;;1.58;;
54705;SDS011;40603;48.774;8.916;2023-07-29T02:36:04;5.00;;;1.70;;
54705;SDS011;40603;48.774;8.916;2023-07-29T02:38:30;3.05;;;2.05;;
54705;SDS011;40603;48.774;8.916;2023-07-29T02:40:55;2.15;;;1.77;;
54705;SDS011;40603;48.774;8.916;2023-07-29T02:43:20;7.38;;;1.80;;
54705;SDS011;40603;48.774;8.916;2023-07-29T02:45:46;2.97;;;1.52;;
54705;SDS011;40603;48.774;8.916;2023-07-29T02:48:11;5.35;;;1.70;;
54705;SDS011;40603;48.774;8.916;2023-07-29T02:50:36;6.35;;;1.98;;
54705;SDS011;40603;48.774;8.916;2023-07-29T02:53:01;4.95;;;1.80;;
54705;SDS011;40603;48.774;8.916;2023-07-29T02:55:27;3.28;;;1.52;;
54705;SDS011;40603;48.774;8.916;2023-07-29T02:57:52;2.75;;;1.80;;
54705;SDS011;40603;48.774;8.916;2023-07-29T03:00:17;2.15;;;1.45;;
54705;SDS011;40603;48.774;8.916;2023-07-29T03:02:43;3.08;;;1.45;;
54705;SDS011;40603;48.774;8.916;2023-07-29T03:05:08;5.97;;;2.85;;
54705;SDS011;40603;48.774;8.916;2023-07-29T03:07:33;2.78;;;1.63;;
54705;SDS011;40603;48.774;8.916;2023-07-29T03:09:59;1.88;;;1.45;;
54705;SDS011;40603;48.774;8.916;2023-07-29T03:12:24;5.18;;;1.70;;
54705;SDS011;40603;48.774;8.916;2023-07-29T03:14:50;8.45;;;2.35;;
54705;SDS011;40603;48.774;8.916;2023-07-29T03:17:15;5.47;;;1.83;;
54705;SDS011;40603;48.774;8.916;2023-07-29T03:19:40;2.38;;;1.90;;
54705;SDS011;40603;48.774;8.916;2023-07-29T03:22:05;4.25;;;1.85;;
54705;SDS011;40603;48.774;8.916;2023-07-29T03:24:32;7.07;;;1.73;;
54705;SDS011;40603;48.774;8.916;2023-07-29T03:26:57;5.60;;;1.90;;
54705;SDS011;40603;48.774;8.916;2023-07-29T03:29:22;5.90;;;1.80;;
54705;SDS011;40603;48.774;8.916;2023-07-29T03:31:48;4.05;;;2.10;;
54705;SDS011;40603;48.774;8.916;2023-07-29T03:34:13;9.80;;;2.80;;
54705;SDS011;40603;48.774;8.916;2023-07-29T03:36:38;7.53;;;2.40;;
54705;SDS011;40603;48.774;8.916;2023-07-29T03:39:04;1.98;;;1.63;;
54705;SDS011;40603;48.774;8.916;2023-07-29T03:41:29;3.97;;;1.90;;
54705;SDS011;40603;48.774;8.916;2023-07-29T03:43:54;5.88;;;1.90;;
54705;SDS011;40603;48.774;8.916;2023-07-29T03:46:20;11.43;;;2.28;;
54705;SDS011;40603;48.774;8.916;2023-07-29T03:48:46;3.75;;;2.22;;
54705;SDS011;40603;48.774;8.916;2023-07-29T03:51:12;4.30;;;2.28;;
54705;SDS011;40603;48.774;8.916;2023-07-29T03:53:37;7.47;;;2.33;;
54705;SDS011;40603;48.774;8.916;2023-07-29T03:56:03;6.65;;;2.05;;
54705;SDS011;40603;48.774;8.916;2023-07-29T03:58:28;3.55;;;2.25;;
54705;SDS011;40603;48.774;8.916;2023-07-29T04:00:53;3.80;;;1.75;;
54705;SDS011;40603;48.774;8.916;2023-07-29T04:03:19;7.05;;;1.80;;
54705;SDS011;40603;48.774;8.916;2023-07-29T04:05:44;6.15;;;1.88;;
54705;SDS011;40603;48.774;8.916;2023-07-29T04:08:09;4.50;;;1.80;;
54705;SDS011;40603;48.774;8.916;2023-07-29T04:10:35;3.83;;;2.17;;
54705;SDS011;40603;48.774;8.916;2023-07-29T04:13:00;6.50;;;1.65;;
54705;SDS011;40603;48.774;8.916;2023-07-29T04:15:25;4.40;;;1.92;;
54705;SDS011;40603;48.774;8.916;2023-07-29T04:17:51;5.43;;;1.58;;
54705;SDS011;40603;48.774;8.916;2023-07-29T04:20:16;3.03;;;2.05;;
54705;SDS011;40603;48.774;8.916;2023-07-29T04:22:41;4.65;;;1.92;;
54705;SDS011;40603;48.774;8.916;2023-07-29T04:25:07;8.85;;;2.53;;
54705;SDS011;40603;48.774;8.916;2023-07-29T04:27:32;4.18;;;1.83;;
54705;SDS011;40603;48.774;8.916;2023-07-29T04:29:57;11.15;;;2.22;;
54705;SDS011;40603;48.774;8.916;2023-07-29T04:32:23;9.30;;;2.15;;
54705;SDS011;40603;48.774;8.916;2023-07-29T04:34:48;6.35;;;2.40;;
54705;SDS011;40603;48.774;8.916;2023-07-29T04:37:14;3.78;;;1.83;;
54705;SDS011;40603;48.774;8.916;2023-07-29T04:39:39;7.93;;;2.60;;
54705;SDS011;40603;48.774;8.916;2023-07-29T04:42:04;7.45;;;2.28;;
54705;SDS011;40603;48.774;8.916;2023-07-29T04:44:30;5.07;;;1.90;;
54705;SDS011;40603;48.774;8.916;2023-07-29T04:46:55;4.75;;;1.77;;
54705;SDS011;40603;48.774;8.916;2023-07-29T04:49:20;8.23;;;2.22;;
54705;SDS011;40603;48.774;8.916;2023-07-29T04:51:46;2.55;;;1.88;;
54705;SDS011;40603;48.774;8.916;2023-07-29T04:54:11;4.97;;;1.83;;
54705;SDS011;40603;48.774;8.916;2023-07-29T04:56:36;4.40;;;1.83;;
54705;SDS011;40603;48.774;8.916;2023-07-29T04:59:01;1.83;;;1.50;;
54705;SDS011;40603;48.774;8.916;2023-07-29T05:01:27;6.97;;;2.03;;
54705;SDS011;40603;48.774;8.916;2023-07-29T05:03:52;6.38;;;1.70;;
54705;SDS011;40603;48.774;8.916;2023-07-29T05:06:17;6.60;;;1.75;;
54705;SDS011;40603;48.774;8.916;2023-07-29T05:08:43;4.47;;;1.92;;
54705;SDS011;40603;48.774;8.916;2023-07-29T05:11:08;2.20;;;1.60;;
54705;SDS011;40603;48.774;8.916;2023-07-29T05:13:33;3.03;;;1.50;;
54705;SDS011;40603;48.774;8.916;2023-07-29T05:15:59;7.55;;;2.15;;
54705;SDS011;40603;48.774;8.916;2023-07-29T05:18:24;2.70;;;1.67;;
54705;SDS011;40603;48.774;8.916;2023-07-29T05:20:49;3.25;;;1.70;;
54705;SDS011;40603;48.774;8.916;2023-07-29T05:23:14;2.45;;;1.77;;
54705;SDS011;40603;48.774;8.916;2023-07-29T05:25:40;2.85;;;1.77;;
54705;SDS011;40603;48.774;8.916;2023-07-29T05:28:05;3.90;;;1.70;;
54705;SDS011;40603;48.774;8.916;2023-07-29T05:30:32;6.65;;;1.88;;
54705;SDS011;40603;48.774;8.916;2023-07-29T05:32:58;5.55;;;1.90;;
54705;SDS011;40603;48.774;8.916;2023-07-29T05:35:24;2.33;;;1.58;;
54705;SDS011;40603;48.774;8.916;2023-07-29T05:37:49;3.33;;;1.60;;
54705;SDS011;40603;48.774;8.916;2023-07-29T05:40:15;4.80;;;1.50;;
54705;SDS011;40603;48.774;8.916;2023-07-29T05:42:40;2.38;;;1.30;;
54705;SDS011;40603;48.774;8.916;2023-07-29T05:45:05;1.83;;;1.27;;
54705;SDS011;40603;48.774;8.916;2023-07-29T05:47:31;3.45;;;1.40;;
54705;SDS011;40603;48.774;8.916;2023-07-29T05:49:57;2.50;;;1.50;;
54705;SDS011;40603;48.774;8.916;2023-07-29T05:52:23;4.15;;;1.30;;
54705;SDS011;40603;48.774;8.916;2023-07-29T05:54:48;5.65;;;1.60;;
54705;SDS011;40603;48.774;8.916;2023-07-29T05:57:13;2.15;;;1.42;;
54705;SDS011;40603;48.774;8.916;2023-07-29T05:59:39;4.80;;;2.00;;
54705;SDS011;40603;48.774;8.916;2023-07-29T06:02:04;2.35;;;1.38;;
54705;SDS011;40603;48.774;8.916;2023-07-29T06:04:30;3.95;;;1.33;;
54705;SDS011;40603;48.774;8.916;2023-07-29T06:06:55;7.90;;;1.33;;
54705;SDS011;40603;48.774;8.916;2023-07-29T06:09:21;2.85;;;1.20;;
54705;SDS011;40603;48.774;8.916;2023-07-29T06:11:50;1.47;;;0.97;;
54705;SDS011;40603;48.774;8.916;2023-07-29T06:14:15;1.20;;;1.08;;
54705;SDS011;40603;48.774;8.916;2023-07-29T06:16:41;0.85;;;0.85;;
54705;SDS011;40603;48.774;8.916;2023-07-29T06:19:06;2.28;;;1.40;;
54705;SDS011;40603;48.774;8.916;2023-07-29T06:21:33;2.65;;;1.20;;
54705;SDS011;40603;48.774;8.916;2023-07-29T06:23:59;4.45;;;1.30;;
54705;SDS011;40603;48.774;8.916;2023-07-29T06:26:24;2.33;;;1.00;;
54705;SDS011;40603;48.774;8.916;2023-07-29T06:28:49;1.80;;;1.08;;
54705;SDS011;40603;48.774;8.916;2023-07-29T06:31:14;1.30;;;1.17;;
54705;SDS011;40603;48.774;8.916;2023-07-29T06:33:40;2.90;;;1.20;;
54705;SDS011;40603;48.774;8.916;2023-07-29T06:36:05;2.05;;;1.00;;
54705;SDS011;40603;48.774;8.916;2023-07-29T06:38:30;1.33;;;1.10;;
54705;SDS011;40603;48.774;8.916;2023-07-29T06:40:56;3.00;;;1.27;;
54705;SDS011;40603;48.774;8.916;2023-07-29T06:43:21;3.10;;;1.00;;
54705;SDS011;40603;48.774;8.916;2023-07-29T06:45:47;2.13;;;1.00;;
54705;SDS011;40603;48.774;8.916;2023-07-29T06:48:12;2.47;;;1.10;;
54705;SDS011;40603;48.774;8.916;2023-07-29T06:50:37;3.60;;;1.55;;
54705;SDS011;40603;48.774;8.916;2023-07-29T06:53:03;1.17;;;1.08;;
54705;SDS011;40603;48.774;8.916;2023-07-29T06:55:28;2.95;;;1.40;;
54705;SDS011;40603;48.774;8.916;2023-07-29T06:57:53;1.45;;;0.98;;
54705;SDS011;40603;48.774;8.916;2023-07-29T07:00:19;1.00;;;0.93;;
54705;SDS011;40603;48.774;8.916;2023-07-29T07:02:44;2.63;;;1.50;;
54705;SDS011;40603;48.774;8.916;2023-07-29T07:05:09;2.55;;;1.20;;
54705;SDS011;40603;48.774;8.916;2023-07-29T07:07:35;3.03;;;1.08;;
54705;SDS011;40603;48.774;8.916;2023-07-29T07:10:00;3.03;;;1.30;;
54705;SDS011;40603;48.774;8.916;2023-07-29T07:12:26;3.22;;;1.95;;
54705;SDS011;40603;48.774;8.916;2023-07-29T07:14:51;2.42;;;1.48;;
54705;SDS011;40603;48.774;8.916;2023-07-29T07:17:16;1.42;;;1.15;;
54705;SDS011;40603;48.774;8.916;2023-07-29T07:19:42;2.47;;;1.30;;
54705;SDS011;40603;48.774;8.916;2023-07-29T07:22:08;1.73;;;1.40;;
54705;SDS011;40603;48.774;8.916;2023-07-29T07:24:33;2.70;;;1.20;;
54705;SDS011;40603;48.774;8.916;2023-07-29T07:26:58;3.72;;;1.23;;
54705;SDS011;40603;48.774;8.916;2023-07-29T07:29:23;1.27;;;1.08;;
54705;SDS011;40603;48.774;8.916;2023-07-29T07:31:50;1.95;;;1.08;;
54705;SDS011;40603;48.774;8.916;2023-07-29T07:34:17;1.88;;;1.17;;
54705;SDS011;40603;48.774;8.916;2023-07-29T07:36:43;3.75;;;1.30;;
54705;SDS011;40603;48.774;8.916;2023-07-29T07:39:08;2.13;;;1.50;;
54705;SDS011;40603;48.774;8.916;2023-07-29T07:41:33;1.77;;;1.30;;
54705;SDS011;40603;48.774;8.916;2023-07-29T07:43:58;3.55;;;1.25;;
54705;SDS011;40603;48.774;8.916;2023-07-29T07:46:24;1.48;;;1.35;;
54705;SDS011;40603;48.774;8.916;2023-07-29T07:48:49;4.63;;;1.40;;
54705;SDS011;40603;48.774;8.916;2023-07-29T07:51:14;1.92;;;1.17;;
54705;SDS011;40603;48.774;8.916;2023-07-29T07:53:40;1.60;;;1.10;;
54705;SDS011;40603;48.774;8.916;2023-07-29T07:56:05;3.92;;;1.48;;
54705;SDS011;40603;48.774;8.916;2023-07-29T07:58:31;2.60;;;1.38;;
54705;SDS011;40603;48.774;8.916;2023-07-29T08:01:03;2.35;;;1.17;;
54705;SDS011;40603;48.774;8.916;2023-07-29T08:03:29;1.33;;;0.88;;
54705;SDS011;40603;48.774;8.916;2023-07-29T08:05:54;1.67;;;1.20;;
54705;SDS011;40603;48.774;8.916;2023-07-29T08:08:20;1.77;;;1.10;;
54705;SDS011;40603;48.774;8.916;2023-07-29T08:10:45;3.25;;;1.10;;
54705;SDS011;40603;48.774;8.916;2023-07-29T08:13:10;1.23;;;0.80;;
54705;SDS011;40603;48.774;8.916;2023-07-29T08:15:35;3.70;;;1.05;;
54705;SDS011;40603;48.774;8.916;2023-07-29T08:18:01;3.00;;;1.00;;
54705;SDS011;40603;48.774;8.916;2023-07-29T08:20:26;6.57;;;1.77;;
54705;SDS011;40603;48.774;8.916;2023-07-29T08:22:51;0.70;;;0.70;;
54705;SDS011;40603;48.774;8.916;2023-07-29T08:25:17;2.13;;;1.20;;
54705;SDS011;40603;48.774;8.916;2023-07-29T08:27:42;3.15;;;1.20;;
54705;SDS011;40603;48.774;8.916;2023-07-29T08:30:08;1.80;;;1.38;;
54705;SDS011;40603;48.774;8.916;2023-07-29T08:32:33;3.40;;;1.30;;
54705;SDS011;40603;48.774;8.916;2023-07-29T08:34:59;3.60;;;1.17;;
54705;SDS011;40603;48.774;8.916;2023-07-29T08:37:24;1.90;;;1.17;;
54705;SDS011;40603;48.774;8.916;2023-07-29T08:39:50;1.80;;;1.00;;
54705;SDS011;40603;48.774;8.916;2023-07-29T08:42:15;2.78;;;1.15;;
54705;SDS011;40603;48.774;8.916;2023-07-29T08:44:42;2.83;;;1.10;;
54705;SDS011;40603;48.774;8.916;2023-07-29T08:47:08;1.50;;;1.25;;
54705;SDS011;40603;48.774;8.916;2023-07-29T08:49:34;1.77;;;1.00;;
54705;SDS011;40603;48.774;8.916;2023-07-29T08:52:00;1.83;;;1.10;;
54705;SDS011;40603;48.774;8.916;2023-07-29T08:54:26;1.40;;;1.00;;
54705;SDS011;40603;48.774;8.916;2023-07-29T08:56:51;1.10;;;1.00;;
54705;SDS011;40603;48.774;8.916;2023-07-29T08:59:17;1.08;;;0.80;;
54705;SDS011;40603;48.774;8.916;2023-07-29T09:01:42;1.13;;;1.00;;
54705;SDS011;40603;48.774;8.916;2023-07-29T09:04:08;4.25;;;1.42;;
54705;SDS011;40603;48.774;8.916;2023-07-29T09:06:34;3.40;;;1.10;;
54705;SDS011;40603;48.774;8.916;2023-07-29T09:09:00;3.38;;;0.95;;
54705;SDS011;40603;48.774;8.916;2023-07-29T09:11:26;1.75;;;0.70;;
54705;SDS011;40603;48.774;8.916;2023-07-29T09:13:52;3.38;;;1.17;;
54705;SDS011;40603;48.774;8.916;2023-07-29T09:16:18;3.30;;;1.00;;
54705;SDS011;40603;48.774;8.916;2023-07-29T09:18:47;1.77;;;1.13;;
54705;SDS011;40603;48.774;8.916;2023-07-29T09:21:13;2.15;;;1.00;;
54705;SDS011;40603;48.774;8.916;2023-07-29T09:23:40;1.42;;;0.95;;
54705;SDS011;40603;48.774;8.916;2023-07-29T09:26:06;2.05;;;0.90;;
54705;SDS011;40603;48.774;8.916;2023-07-29T09:28:33;2.05;;;0.98;;
54705;SDS011;40603;48.774;8.916;2023-07-29T09:31:05;6.13;;;1.60;;
54705;SDS011;40603;48.774;8.916;2023-07-29T09:33:34;1.30;;;0.98;;
54705;SDS011;40603;48.774;8.916;2023-07-29T09:36:01;1.20;;;1.02;;
54705;SDS011;40603;48.774;8.916;2023-07-29T09:38:28;1.15;;;1.00;;
54705;SDS011;40603;48.774;8.916;2023-07-29T09:40:57;3.13;;;1.23;;
54705;SDS011;40603;48.774;8.916;2023-07-29T09:43:30;1.85;;;1.05;;
54705;SDS011;40603;48.774;8.916;2023-07-29T09:46:03;1.73;;;1.50;;
54705;SDS011;40603;48.774;8.916;2023-07-29T09:48:36;8.20;;;1.52;;
54705;SDS011;40603;48.774;8.916;2023-07-29T09:51:12;1.67;;;1.23;;
54705;SDS011;40603;48.774;8.916;2023-07-29T09:53:42;1.35;;;1.20;;
54705;SDS011;40603;48.774;8.916;2023-07-29T09:56:08;1.80;;;1.15;;
54705;SDS011;40603;48.774;8.916;2023-07-29T09:58:33;1.30;;;1.20;;
54705;SDS011;40603;48.774;8.916;2023-07-29T10:01:00;2.20;;;1.35;;
54705;SDS011;40603;48.774;8.916;2023-07-29T10:03:25;2.17;;;1.30;;
54705;SDS011;40603;48.774;8.916;2023-07-29T10:05:50;1.00;;;0.90;;
54705;SDS011;40603;48.774;8.916;2023-07-29T10:08:16;2.55;;;1.45;;
54705;SDS011;40603;48.774;8.916;2023-07-29T10:10:43;7.15;;;1.38;;
54705;SDS011;40603;48.774;8.916;2023-07-29T10:13:09;1.85;;;1.10;;
54705;SDS011;40603;48.774;8.916;2023-07-29T10:15:34;1.25;;;1.15;;
54705;SDS011;40603;48.774;8.916;2023-07-29T10:18:01;3.13;;;1.02;;
54705;SDS011;40603;48.774;8.916;2023-07-29T10:20:27;2.47;;;1.20;;
54705;SDS011;40603;48.774;8.916;2023-07-29T10:22:55;1.50;;;1.10;;
54705;SDS011;40603;48.774;8.916;2023-07-29T10:25:24;4.35;;;1.10;;
54705;SDS011;40603;48.774;8.916;2023-07-29T10:27:56;2.75;;;1.30;;
54705;SDS011;40603;48.774;8.916;2023-07-29T10:30:29;1.27;;;1.17;;
54705;SDS011;40603;48.774;8.916;2023-07-29T10:32:55;1.02;;;0.93;;
54705;SDS011;40603;48.774;8.916;2023-07-29T10:35:23;1.42;;;1.15;;
54705;SDS011;40603;48.774;8.916;2023-07-29T10:37:48;1.08;;;1.05;;
54705;SDS011;40603;48.774;8.916;2023-07-29T10:40:16;1.20;;;1.10;;
54705;SDS011;40603;48.774;8.916;2023-07-29T10:42:58;1.42;;;1.00;;
54705;SDS011;40603;48.774;8.916;2023-07-29T10:45:28;2.53;;;1.17;;
54705;SDS011;40603;48.774;8.916;2023-07-29T10:48:04;2.83;;;1.45;;
54705;SDS011;40603;48.774;8.916;2023-07-29T10:50:36;1.23;;;0.93;;
54705;SDS011;40603;48.774;8.916;2023-07-29T10:53:01;1.25;;;1.15;;
54705;SDS011;40603;48.774;8.916;2023-07-29T10:55:28;2.78;;;1.30;;
54705;SDS011;40603;48.774;8.916;2023-07-29T11:00:31;1.60;;;1.08;;
54705;SDS011;40603;48.774;8.916;2023-07-29T11:03:01;1.90;;;1.23;;
54705;SDS011;40603;48.774;8.916;2023-07-29T11:05:41;2.75;;;1.50;;
54705;SDS011;40603;48.774;8.916;2023-07-29T11:08:20;3.08;;;1.30;;
54705;SDS011;40603;48.774;8.916;2023-07-29T11:13:28;2.85;;;1.20;;
54705;SDS011;40603;48.774;8.916;2023-07-29T11:15:54;1.20;;;1.10;;
54705;SDS011;40603;48.774;8.916;2023-07-29T11:18:21;0.80;;;0.80;;
54705;SDS011;40603;48.774;8.916;2023-07-29T11:20:46;1.45;;;1.15;;
54705;SDS011;40603;48.774;8.916;2023-07-29T11:23:13;0.93;;;0.93;;
54705;SDS011;40603;48.774;8.916;2023-07-29T11:25:38;1.13;;;1.00;;
54705;SDS011;40603;48.774;8.916;2023-07-29T11:28:04;1.30;;;1.20;;
54705;SDS011;40603;48.774;8.916;2023-07-29T11:30:29;4.45;;;1.30;;
54705;SDS011;40603;48.774;8.916;2023-07-29T11:32:56;3.53;;;1.30;;
54705;SDS011;40603;48.774;8.916;2023-07-29T11:35:22;1.30;;;1.20;;
54705;SDS011;40603;48.774;8.916;2023-07-29T11:37:48;1.23;;;1.00;;
54705;SDS011;40603;48.774;8.916;2023-07-29T11:40:16;1.30;;;1.20;;
54705;SDS011;40603;48.774;8.916;2023-07-29T11:42:45;1.45;;;1.23;;
54705;SDS011;40603;48.774;8.916;2023-07-29T11:45:12;1.23;;;1.13;;
54705;SDS011;40603;48.774;8.916;2023-07-29T11:47:38;8.25;;;1.48;;
54705;SDS011;40603;48.774;8.916;2023-07-29T11:50:07;1.40;;;1.13;;
54705;SDS011;40603;48.774;8.916;2023-07-29T11:52:38;1.35;;;1.20;;
54705;SDS011;40603;48.774;8.916;2023-07-29T11:55:05;1.58;;;1.08;;
54705;SDS011;40603;48.774;8.916;2023-07-29T11:57:31;1.55;;;1.17;;
54705;SDS011;40603;48.774;8.916;2023-07-29T11:59:56;1.40;;;1.20;;
54705;SDS011;40603;48.774;8.916;2023-07-29T12:02:22;1.60;;;1.30;;
54705;SDS011;40603;48.774;8.916;2023-07-29T12:04:48;1.70;;;1.38;;
54705;SDS011;40603;48.774;8.916;2023-07-29T12:07:14;2.00;;;1.30;;
54705;SDS011;40603;48.774;8.916;2023-07-29T12:09:41;2.10;;;1.40;;
54705;SDS011;40603;48.774;8.916;2023-07-29T12:12:07;1.92;;;1.33;;
54705;SDS011;40603;48.774;8.916;2023-07-29T12:14:32;1.67;;;1.58;;
54705;SDS011;40603;48.774;8.916;2023-07-29T12:17:02;2.72;;;1.60;;
54705;SDS011;40603;48.774;8.916;2023-07-29T12:19:35;1.88;;;1.73;;
54705;SDS011;40603;48.774;8.916;2023-07-29T12:22:02;2.15;;;1.95;;
54705;SDS011;40603;48.774;8.916;2023-07-29T12:24:32;5.20;;;1.77;;
54705;SDS011;40603;48.774;8.916;2023-07-29T12:26:58;4.68;;;1.40;;
54705;SDS011;40603;48.774;8.916;2023-07-29T12:29:24;3.05;;;1.20;;
54705;SDS011;40603;48.774;8.916;2023-07-29T12:31:53;2.95;;;1.75;;
54705;SDS011;40603;48.774;8.916;2023-07-29T12:34:25;3.40;;;1.45;;
54705;SDS011;40603;48.774;8.916;2023-07-29T12:36:51;2.47;;;1.60;;
54705;SDS011;40603;48.774;8.916;2023-07-29T12:41:47;1.60;;;1.50;;
54705;SDS011;40603;48.774;8.916;2023-07-29T12:44:13;2.58;;;1.30;;
54705;SDS011;40603;48.774;8.916;2023-07-29T12:46:38;1.75;;;1.55;;
54705;SDS011;40603;48.774;8.916;2023-07-29T12:49:03;2.20;;;1.45;;
54705;SDS011;40603;48.774;8.916;2023-07-29T12:51:29;3.65;;;1.10;;
54705;SDS011;40603;48.774;8.916;2023-07-29T12:53:54;1.85;;;1.33;;
54705;SDS011;40603;48.774;8.916;2023-07-29T12:56:19;1.40;;;1.20;;
54705;SDS011;40603;48.774;8.916;2023-07-29T12:58:45;1.85;;;1.48;;
54705;SDS011;40603;48.774;8.916;2023-07-29T13:01:10;2.55;;;1.85;;
54705;SDS011;40603;48.774;8.916;2023-07-29T13:03:41;2.10;;;1.70;;
54705;SDS011;40603;48.774;8.916;2023-07-29T13:06:06;2.13;;;1.88;;
54705;SDS011;40603;48.774;8.916;2023-07-29T13:08:32;2.28;;;1.73;;
54705;SDS011;40603;48.774;8.916;2023-07-29T13:10:57;1.73;;;1.58;;
54705;SDS011;40603;48.774;8.916;2023-07-29T13:13:22;1.98;;;1.38;;
54705;SDS011;40603;48.774;8.916;2023-07-29T13:15:48;1.65;;;1.45;;
54705;SDS011;40603;48.774;8.916;2023-07-29T13:18:13;1.50;;;1.40;;
54705;SDS011;40603;48.774;8.916;2023-07-29T13:20:38;2.55;;;1.52;;
54705;SDS011;40603;48.774;8.916;2023-07-29T13:23:03;2.45;;;1.60;;
54705;SDS011;40603;48.774;8.916;2023-07-29T13:25:29;1.90;;;1.40;;
54705;SDS011;40603;48.774;8.916;2023-07-29T13:27:54;2.85;;;1.25;;
54705;SDS011;40603;48.774;8.916;2023-07-29T13:30:19;1.42;;;1.33;;
54705;SDS011;40603;48.774;8.916;2023-07-29T13:32:45;1.60;;;1.33;;
54705;SDS011;40603;48.774;8.916;2023-07-29T13:35:10;3.95;;;1.50;;
54705;SDS011;40603;48.774;8.916;2023-07-29T13:37:35;1.67;;;1.40;;
54705;SDS011;40603;48.774;8.916;2023-07-29T13:40:00;1.50;;;1.25;;
54705;SDS011;40603;48.774;8.916;2023-07-29T13:42:26;3.42;;;1.15;;
54705;SDS011;40603;48.774;8.916;2023-07-29T13:44:51;1.65;;;1.30;;
54705;SDS011;40603;48.774;8.916;2023-07-29T13:47:16;3.60;;;1.30;;
54705;SDS011;40603;48.774;8.916;2023-07-29T13:49:42;1.58;;;1.30;;
54705;SDS011;40603;48.774;8.916;2023-07-29T13:52:07;1.27;;;1.17;;
54705;SDS011;40603;48.774;8.916;2023-07-29T13:54:33;4.43;;;1.55;;
54705;SDS011;40603;48.774;8.916;2023-07-29T13:56:58;2.08;;;1.58;;
54705;SDS011;40603;48.774;8.916;2023-07-29T13:59:23;4.13;;;1.40;;
54705;SDS011;40603;48.774;8.916;2023-07-29T14:01:48;2.35;;;1.40;;
54705;SDS011;40603;48.774;8.916;2023-07-29T14:04:14;2.95;;;1.25;;
54705;SDS011;40603;48.774;8.916;2023-07-29T14:06:39;1.45;;;1.35;;
54705;SDS011;40603;48.774;8.916;2023-07-29T14:09:04;3.35;;;1.38;;
54705;SDS011;40603;48.774;8.916;2023-07-29T14:11:30;2.40;;;1.45;;
54705;SDS011;40603;48.774;8.916;2023-07-29T14:13:55;1.73;;;1.60;;
54705;SDS011;40603;48.774;8.916;2023-07-29T14:16:20;2.90;;;1.73;;
54705;SDS011;40603;48.774;8.916;2023-07-29T14:18:45;1.52;;;1.42;;
54705;SDS011;40603;48.774;8.916;2023-07-29T14:21:11;1.50;;;1.30;;
54705;SDS011;40603;48.774;8.916;2023-07-29T14:23:36;2.60;;;1.58;;
54705;SDS011;40603;48.774;8.916;2023-07-29T14:26:01;1.58;;;1.48;;
54705;SDS011;40603;48.774;8.916;2023-07-29T14:28:27;3.33;;;1.40;;
54705;SDS011;40603;48.774;8.916;2023-07-29T14:30:52;1.85;;;1.50;;
54705;SDS011;40603;48.774;8.916;2023-07-29T14:33:17;1.40;;;1.30;;
54705;SDS011;40603;48.774;8.916;2023-07-29T14:35:43;1.73;;;1.30;;
54705;SDS011;40603;48.774;8.916;2023-07-29T14:38:08;1.48;;;1.38;;
54705;SDS011;40603;48.774;8.916;2023-07-29T14:40:33;1.38;;;1.27;;
54705;SDS011;40603;48.774;8.916;2023-07-29T14:42:59;1.30;;;1.20;;
54705;SDS011;40603;48.774;8.916;2023-07-29T14:45:24;1.98;;;1.63;;
54705;SDS011;40603;48.774;8.916;2023-07-29T14:47:49;2.90;;;1.67;;
54705;SDS011;40603;48.774;8.916;2023-07-29T14:50:15;1.98;;;1.30;;
54705;SDS011;40603;48.774;8.916;2023-07-29T14:52:40;2.17;;;1.48;;
54705;SDS011;40603;48.774;8.916;2023-07-29T14:55:05;3.40;;;1.67;;